Stations météo

Publicité
Toulon, France (7660): Température de l'air & dewpoint: 16.02.2017 07:00:00 - 22.02.2017 07:00:00 (CET)Toulon, France (7660): Vitesse du vent & gusts: 16.02.2017 07:00:00 - 22.02.2017 07:00:00 (CET)Toulon, France (7660): Direction du vent: 16.02.2017 07:00:00 - 22.02.2017 07:00:00 (CET)Toulon, France (7660): reduced air pressure: 16.02.2017 07:00:00 - 22.02.2017 07:00:00 (CET)Toulon, France (7660): Quantités de précipitations: 16.02.2017 07:00:00 - 22.02.2017 07:00:00 (CET)
Date & Time tt [°C] td [°C] ff [km/h] ff [knt] fx [km/h] fx [knt] dd ppp [hPa] rr [mm]
22.02.2017 07:00:00 7,8 5,6 2 1 8 4 ESE 1019,9 -
22.02.2017 06:00:00 7,0 5,0 5 3 9 5 NNW 1019,9 0,0
22.02.2017 05:00:00 7,3 5,3 0 0 8 4 N 1019,9 0,0
22.02.2017 04:00:00 7,5 5,0 5 3 8 4 WNW 1019,9 -
22.02.2017 03:00:00 7,9 5,2 4 2 9 5 E 1020,2 0,0
22.02.2017 02:00:00 8,3 5,4 8 4 9 5 WNW 1020,5 0,0
22.02.2017 01:00:00 9,4 6,5 5 3 18 10 NNE 1020,3 -
22.02.2017 00:00:00 10,6 6,9 15 8 24 13 ENE 1020,2 0,0
21.02.2017 23:00:00 11,2 7,9 18 10 26 14 E 1019,7 0,0
21.02.2017 22:00:00 10,3 7,4 18 10 24 13 ESE 1019,7 -
21.02.2017 21:00:00 11,2 6,9 9 5 24 13 ESE 1019,3 0,0
21.02.2017 20:00:00 11,9 8,2 18 10 24 13 E 1019,1 0,0
21.02.2017 19:00:00 12,0 8,1 11 6 21 11 E 1018,9 -
21.02.2017 18:00:00 12,7 9,1 15 8 18 10 ESE 1018,7 0,0
21.02.2017 17:00:00 13,5 8,8 13 7 21 11 SE 1018,9 0,0
21.02.2017 16:00:00 14,4 8,1 13 7 18 10 SSE 1018,9 -
21.02.2017 15:00:00 14,7 7,0 5 3 11 6 S 1019,2 0,0
21.02.2017 14:00:00 16,1 8,3 5 3 9 5 S 1019,7 0,0
21.02.2017 13:00:00 16,4 8,9 2 1 15 8 WSW 1020,5 -
21.02.2017 12:00:00 16,2 8,9 2 1 8 4 ESE 1021,4 0,0
21.02.2017 11:00:00 14,7 8,0 4 2 9 5 SE 1021,7 0,0
21.02.2017 10:00:00 11,5 6,6 0 0 5 3 N 1022,1 -
21.02.2017 09:00:00 8,7 5,6 0 0 5 3 N 1022,3 0,0
21.02.2017 08:00:00 6,7 4,4 4 2 8 4 N 1022,2 0,0
21.02.2017 07:00:00 6,2 4,2 5 3 9 5 NW 1021,9 -
21.02.2017 06:00:00 6,9 4,9 2 1 5 3 N 1022,0 0,0
21.02.2017 05:00:00 7,4 5,0 0 0 8 4 N 1022,2 0,0
21.02.2017 04:00:00 7,5 4,8 4 2 5 3 N 1022,6 -
21.02.2017 03:00:00 7,3 3,3 2 1 8 4 NNE 1022,6 0,0
21.02.2017 02:00:00 8,1 3,4 2 1 8 4 E 1022,9 0,0
21.02.2017 01:00:00 7,9 2,4 4 2 8 4 WNW 1023,2 -
21.02.2017 00:00:00 8,1 1,9 5 3 8 4 ENE 1023,4 0,0
20.02.2017 23:00:00 8,9 3,1 4 2 5 3 WSW 1023,5 0,0
20.02.2017 22:00:00 9,2 2,5 5 3 11 6 NW 1023,3 -
20.02.2017 21:00:00 10,1 2,9 4 2 11 6 ENE 1023,3 0,0
20.02.2017 20:00:00 11,0 4,4 2 1 8 4 E 1023,0 0,0
20.02.2017 19:00:00 11,2 4,4 8 4 9 5 SW 1023,0 -
20.02.2017 18:00:00 12,0 4,7 4 2 13 7 SSW 1022,4 0,0
20.02.2017 17:00:00 13,3 5,2 4 2 13 7 SW 1022,2 0,0
20.02.2017 16:00:00 14,3 3,1 5 3 18 10 W 1022,3 -
20.02.2017 15:00:00 14,5 0,7 13 7 22 12 W 1022,2 0,0
20.02.2017 14:00:00 15,4 2,9 15 8 22 12 W 1022,1 0,0
20.02.2017 13:00:00 16,0 4,4 8 4 18 10 W 1022,6 -
20.02.2017 12:00:00 17,2 6,1 5 3 18 10 SSW 1022,7 0,0
20.02.2017 11:00:00 16,1 5,4 2 1 13 7 SE 1023,1 0,0
20.02.2017 10:00:00 11,3 4,0 9 5 13 7 W 1022,7 -
20.02.2017 09:00:00 8,7 3,7 11 6 15 8 WNW 1022,3 0,0
20.02.2017 08:00:00 6,7 2,4 8 4 11 6 NNW 1022,1 0,0
20.02.2017 07:00:00 6,4 2,7 5 3 9 5 NNW 1021,7 -
20.02.2017 06:00:00 7,0 3,4 5 3 11 6 NNW 1021,3 0,0
20.02.2017 05:00:00 7,7 3,5 4 2 13 7 NW 1021,1 0,0
20.02.2017 04:00:00 8,8 3,6 8 4 22 12 W 1021,0 -
20.02.2017 03:00:00 9,7 5,1 18 10 28 15 NW 1021,2 0,0
20.02.2017 02:00:00 10,0 5,8 16 9 34 18 W 1021,5 0,0
20.02.2017 01:00:00 10,6 6,9 18 10 31 17 NW 1021,6 -
20.02.2017 00:00:00 10,6 7,1 11 6 24 13 WNW 1022,1 0,0
19.02.2017 23:00:00 10,0 5,8 9 5 18 10 WSW 1022,7 0,0
19.02.2017 22:00:00 10,9 5,2 16 9 31 17 W 1023,1 -
19.02.2017 21:00:00 11,3 4,3 18 10 31 17 WNW 1023,3 0,0
19.02.2017 20:00:00 11,4 5,0 18 10 31 17 WNW 1023,2 0,0
19.02.2017 19:00:00 11,9 7,8 15 8 34 18 WNW 1023,3 -
19.02.2017 18:00:00 12,6 6,4 18 10 39 21 W 1023,2 0,0
19.02.2017 17:00:00 13,5 4,4 21 11 42 23 W 1023,1 0,0
19.02.2017 16:00:00 14,5 2,4 16 9 35 19 W 1023,3 -
19.02.2017 15:00:00 14,5 5,0 18 10 34 18 W 1024,0 0,0
19.02.2017 14:00:00 15,4 5,0 15 8 24 13 W 1024,6 0,0
19.02.2017 13:00:00 17,0 9,7 5 3 11 6 S 1025,4 -
19.02.2017 12:00:00 16,2 7,1 5 3 8 4 S 1026,4 0,0
19.02.2017 11:00:00 16,1 6,2 4 2 5 3 SSE 1026,6 0,0
19.02.2017 10:00:00 11,2 4,2 4 2 9 5 W 1026,6 -
19.02.2017 09:00:00 9,7 3,6 0 0 9 5 N 1026,4 0,0
19.02.2017 08:00:00 7,5 1,8 0 0 16 9 N 1025,8 0,0
19.02.2017 07:00:00 8,0 2,7 5 3 13 7 S 1025,3 -
19.02.2017 06:00:00 8,3 1,2 2 1 18 10 ENE 1024,9 0,0
19.02.2017 05:00:00 8,7 3,1 9 5 15 8 NW 1024,5 0,0
19.02.2017 04:00:00 9,7 3,9 9 5 15 8 NW 1024,4 -
19.02.2017 03:00:00 10,7 1,2 9 5 22 12 N 1024,4 0,0
19.02.2017 02:00:00 10,9 2,2 11 6 24 13 NNE 1024,2 0,0
19.02.2017 01:00:00 10,7 3,2 9 5 21 11 NNE 1024,0 -
19.02.2017 00:00:00 10,2 6,3 9 5 16 9 E 1023,9 0,0
18.02.2017 23:00:00 10,5 6,8 9 5 18 10 E 1023,8 0,0
18.02.2017 22:00:00 11,2 6,7 5 3 13 7 E 1023,4 -
18.02.2017 21:00:00 11,5 7,4 9 5 22 12 E 1023,2 0,0
18.02.2017 20:00:00 12,1 8,0 15 8 26 14 E 1022,7 0,0
18.02.2017 19:00:00 12,3 8,2 13 7 24 13 E 1022,3 -
18.02.2017 18:00:00 12,9 9,5 22 12 31 17 ESE 1021,7 0,0
18.02.2017 17:00:00 13,4 9,6 29 16 41 22 ESE 1021,2 0,0
18.02.2017 16:00:00 13,6 9,8 37 20 50 27 ESE 1021,1 -
18.02.2017 15:00:00 14,0 10,0 42 23 48 26 SE 1021,0 0,0
18.02.2017 14:00:00 15,5 9,2 41 22 48 26 SE 1021,3 0,0
18.02.2017 13:00:00 16,8 8,0 26 14 48 26 E 1021,8 -
18.02.2017 12:00:00 16,8 9,0 39 21 52 28 ESE 1022,2 0,0
18.02.2017 11:00:00 16,1 9,0 21 11 44 24 E 1022,2 0,0
18.02.2017 10:00:00 14,9 8,8 15 8 24 13 E 1021,8 -
18.02.2017 09:00:00 10,2 7,4 0 0 9 5 N 1021,9 0,0
18.02.2017 08:00:00 8,7 6,0 8 4 15 8 NNW 1021,4 0,0
18.02.2017 07:00:00 8,8 5,5 4 2 13 7 E 1021,1 -
18.02.2017 06:00:00 9,6 6,1 8 4 24 13 NE 1020,8 0,0
18.02.2017 05:00:00 10,4 6,3 13 7 22 12 NE 1020,6 0,0
18.02.2017 04:00:00 10,9 6,4 15 8 29 16 NE 1020,8 -
18.02.2017 03:00:00 10,3 6,3 16 9 28 15 E 1021,1 0,0
18.02.2017 02:00:00 11,0 7,7 16 9 24 13 E 1021,3 0,0
18.02.2017 01:00:00 11,2 7,1 13 7 18 10 E 1021,4 -
18.02.2017 00:00:00 11,9 5,1 8 4 16 9 N 1021,2 0,0
17.02.2017 23:00:00 12,4 6,7 11 6 34 18 E 1021,1 0,0
17.02.2017 22:00:00 12,7 8,2 22 12 44 24 NW 1021,1 -
17.02.2017 21:00:00 12,1 8,0 18 10 31 17 NW 1021,2 0,0
17.02.2017 20:00:00 11,1 8,0 13 7 26 14 WNW 1021,5 0,0
17.02.2017 19:00:00 11,3 9,2 13 7 28 15 WNW 1022,0 -
17.02.2017 18:00:00 11,3 9,4 16 9 39 21 WNW 1022,1 0,0
17.02.2017 17:00:00 11,4 9,5 22 12 46 25 W 1022,1 0,0
17.02.2017 16:00:00 11,6 9,5 22 12 44 24 W 1022,7 -
17.02.2017 15:00:00 11,7 9,3 24 13 44 24 W 1023,4 0,0
17.02.2017 14:00:00 11,8 9,2 26 14 54 29 W 1024,3 0,0
17.02.2017 13:00:00 12,2 9,4 29 16 54 29 WNW 1025,3 -
17.02.2017 12:00:00 12,3 9,5 28 15 46 25 W 1025,9 0,0
17.02.2017 11:00:00 13,4 9,6 18 10 39 21 W 1026,4 0,0
17.02.2017 10:00:00 13,0 9,1 22 12 39 21 W 1026,7 -
17.02.2017 09:00:00 11,7 8,5 16 9 24 13 WNW 1027,0 0,0
17.02.2017 08:00:00 10,0 7,4 8 4 15 8 W 1027,2 0,0
17.02.2017 07:00:00 10,7 7,6 9 5 21 11 W 1027,2 -
17.02.2017 06:00:00 11,6 8,4 8 4 22 12 W 1027,5 0,0
17.02.2017 05:00:00 11,9 9,5 8 4 15 8 W 1028,0 0,0
17.02.2017 04:00:00 11,7 9,3 8 4 16 9 W 1028,5 -
17.02.2017 03:00:00 11,8 9,4 9 5 16 9 W 1029,0 0,0
17.02.2017 02:00:00 11,6 9,8 8 4 18 10 W 1029,8 0,0
17.02.2017 01:00:00 11,3 9,9 11 6 18 10 WNW 1030,2 -
17.02.2017 00:00:00 10,9 9,5 9 5 18 10 W 1030,5 0,0
16.02.2017 23:00:00 11,0 9,4 13 7 21 11 W 1030,8 0,0
16.02.2017 22:00:00 11,1 9,7 11 6 26 14 W 1031,0 -
16.02.2017 21:00:00 11,6 10,2 18 10 29 16 WNW 1030,8 0,0
16.02.2017 20:00:00 12,2 10,8 15 8 35 19 W 1030,7 0,0
16.02.2017 19:00:00 12,5 10,7 18 10 34 18 W 1030,8 -
16.02.2017 18:00:00 12,7 10,8 18 10 37 20 W 1030,6 0,0
16.02.2017 17:00:00 13,5 10,5 21 11 39 21 W 1030,4 0,0
16.02.2017 16:00:00 14,4 10,0 21 11 39 21 W 1030,7 -
16.02.2017 15:00:00 14,6 9,8 22 12 41 22 W 1031,0 0,0
16.02.2017 14:00:00 15,5 9,8 21 11 37 20 W 1031,4 0,0
16.02.2017 13:00:00 16,3 10,6 13 7 37 20 W 1032,1 -
16.02.2017 12:00:00 16,3 9,2 13 7 28 15 W 1032,8 0,0
16.02.2017 11:00:00 14,9 9,5 15 8 28 15 W 1033,1 0,0
16.02.2017 10:00:00 12,9 8,6 13 7 21 11 W 1033,1 -
16.02.2017 09:00:00 10,0 8,1 5 3 13 7 W 1033,1 0,0
16.02.2017 08:00:00 8,2 7,0 5 3 9 5 WNW 1033,0 0,0
16.02.2017 07:00:00 7,7 6,2 5 3 8 4 NNW 1032,9 -

tt = Température de l'air
td = dewpoint
ff = Vitesse du vent
fx = gusts
dd = Direction du vent
ppp = reduced air pressure
rr = Quantités de précipitations

stations d'obs. à proximité